FAB2326 SBBW-SBSR
Flight info
| Callsign | FAB2326 |
|---|---|
| Flight time | N/A |
| Altitude | 9000 |
| Route | DCT 18 5 37S 51 4 9W DCT SR369 |
| Aircraft | C95B/L-SDE3/C |
Departure
| Time | N/A |
|---|---|
| Airport | Barra do Garças Airport (SBBW) |
Arrival
| Time | 2026-04-11 11:33 |
|---|---|
| Airport | Prof. Eribelto Manoel Reino State Airport (SBSR) |
| Time | Latitude | Longitude | Altitude | Speed | Heading |
|---|---|---|---|---|---|
| 2026-04-11 10:29 | -17.46183 | -51.43205 | 18552 ft | 275 kts | 156° |
| 2026-04-11 10:29 | -17.47846 | -51.42254 | 18231 ft | 275 kts | 156° |
| 2026-04-11 10:29 | -17.49525 | -51.41293 | 17905 ft | 274 kts | 156° |
| 2026-04-11 10:30 | -17.51177 | -51.40346 | 17716 ft | 268 kts | 156° |
| 2026-04-11 10:30 | -17.52775 | -51.39427 | 17762 ft | 257 kts | 156° |
| 2026-04-11 10:30 | -17.54339 | -51.38527 | 17877 ft | 249 kts | 156° |
| 2026-04-11 10:30 | -17.55828 | -51.37671 | 18014 ft | 243 kts | 156° |
| 2026-04-11 10:31 | -17.57306 | -51.36824 | 18157 ft | 239 kts | 156° |
| 2026-04-11 10:31 | -17.58757 | -51.35993 | 18301 ft | 235 kts | 157° |
| 2026-04-11 10:31 | -17.60173 | -51.35187 | 18465 ft | 233 kts | 157° |
| 2026-04-11 10:31 | -17.61625 | -51.34362 | 18600 ft | 237 kts | 156° |
| 2026-04-11 10:32 | -17.63048 | -51.33537 | 18749 ft | 234 kts | 156° |
| 2026-04-11 10:32 | -17.64485 | -51.32712 | 18899 ft | 235 kts | 157° |
| 2026-04-11 10:32 | -17.65940 | -51.31883 | 18888 ft | 244 kts | 157° |
| 2026-04-11 10:32 | -17.67440 | -51.31032 | 18704 ft | 250 kts | 156° |
| 2026-04-11 10:33 | -17.68977 | -51.30156 | 18462 ft | 251 kts | 156° |
| 2026-04-11 10:33 | -17.70519 | -51.29273 | 18213 ft | 251 kts | 156° |
| 2026-04-11 10:33 | -17.72045 | -51.28397 | 17965 ft | 252 kts | 156° |
| 2026-04-11 10:33 | -17.73592 | -51.27509 | 17715 ft | 252 kts | 156° |
| 2026-04-11 10:34 | -17.75119 | -51.26632 | 17467 ft | 252 kts | 156° |
| 2026-04-11 10:34 | -17.76668 | -51.25742 | 17216 ft | 252 kts | 156° |
| 2026-04-11 10:34 | -17.78189 | -51.24869 | 16968 ft | 251 kts | 156° |
| 2026-04-11 10:34 | -17.79731 | -51.23983 | 16717 ft | 251 kts | 156° |
| 2026-04-11 10:35 | -17.81245 | -51.23113 | 16470 ft | 250 kts | 156° |
| 2026-04-11 10:35 | -17.82775 | -51.22234 | 16220 ft | 250 kts | 156° |
| 2026-04-11 10:35 | -17.84306 | -51.21354 | 15969 ft | 249 kts | 156° |
| 2026-04-11 10:35 | -17.85834 | -51.20476 | 15718 ft | 249 kts | 156° |
| 2026-04-11 10:36 | -17.87343 | -51.19608 | 15469 ft | 248 kts | 156° |
| 2026-04-11 10:36 | -17.88846 | -51.18744 | 15221 ft | 248 kts | 156° |
| 2026-04-11 10:36 | -17.90368 | -51.17869 | 14970 ft | 247 kts | 156° |
| 2026-04-11 10:36 | -17.91885 | -51.16997 | 14719 ft | 247 kts | 156° |
| 2026-04-11 10:37 | -17.93378 | -51.16138 | 14471 ft | 246 kts | 156° |
| 2026-04-11 10:37 | -17.94888 | -51.15269 | 14219 ft | 246 kts | 156° |
| 2026-04-11 10:37 | -17.96373 | -51.14415 | 13971 ft | 245 kts | 156° |
| 2026-04-11 10:37 | -17.97871 | -51.13553 | 13721 ft | 245 kts | 156° |
| 2026-04-11 10:38 | -17.99367 | -51.12691 | 13470 ft | 244 kts | 156° |
| 2026-04-11 10:38 | -18.00844 | -51.11841 | 13221 ft | 243 kts | 156° |
| 2026-04-11 10:38 | -18.03805 | -51.10135 | 12722 ft | 242 kts | 156° |
| 2026-04-11 10:39 | -18.05289 | -51.09280 | 12470 ft | 242 kts | 156° |
| 2026-04-11 10:39 | -18.06748 | -51.08440 | 12222 ft | 241 kts | 156° |
| 2026-04-11 10:39 | -18.08210 | -51.07564 | 11972 ft | 241 kts | 154° |
| 2026-04-11 10:39 | -18.09650 | -51.06644 | 11721 ft | 241 kts | 153° |
| 2026-04-11 10:40 | -18.11055 | -51.05715 | 11473 ft | 240 kts | 152° |
| 2026-04-11 10:40 | -18.12467 | -51.04764 | 11222 ft | 240 kts | 152° |
| 2026-04-11 10:40 | -18.13870 | -51.03810 | 10971 ft | 239 kts | 152° |
| 2026-04-11 10:40 | -18.15273 | -51.02850 | 10720 ft | 239 kts | 151° |
| 2026-04-11 10:41 | -18.16655 | -51.01901 | 10471 ft | 238 kts | 151° |
| 2026-04-11 10:41 | -18.18044 | -51.00946 | 10221 ft | 238 kts | 151° |
| 2026-04-11 10:41 | -18.19438 | -50.99986 | 9970 ft | 238 kts | 151° |
| 2026-04-11 10:41 | -18.20811 | -50.99041 | 9723 ft | 238 kts | 151° |
| 2026-04-11 10:42 | -18.22202 | -50.98082 | 9472 ft | 238 kts | 151° |
| 2026-04-11 10:42 | -18.23588 | -50.97125 | 9231 ft | 237 kts | 151° |
| 2026-04-11 10:42 | -18.24939 | -50.96192 | 9093 ft | 233 kts | 151° |
| 2026-04-11 10:42 | -18.26299 | -50.95252 | 9021 ft | 232 kts | 151° |
| 2026-04-11 10:43 | -18.29005 | -50.93383 | 8997 ft | 233 kts | 151° |
| 2026-04-11 10:43 | -18.30349 | -50.92455 | 8996 ft | 233 kts | 151° |
| 2026-04-11 10:43 | -18.31704 | -50.91519 | 8996 ft | 232 kts | 151° |
| 2026-04-11 10:44 | -18.33041 | -50.90595 | 8996 ft | 232 kts | 151° |
| 2026-04-11 10:44 | -18.34411 | -50.89649 | 8996 ft | 232 kts | 151° |
| 2026-04-11 10:44 | -18.35756 | -50.88718 | 8996 ft | 232 kts | 151° |
| 2026-04-11 10:44 | -18.37104 | -50.87786 | 8996 ft | 232 kts | 151° |
| 2026-04-11 10:45 | -18.38457 | -50.86851 | 8996 ft | 232 kts | 151° |
| 2026-04-11 10:45 | -18.39801 | -50.85921 | 8996 ft | 232 kts | 151° |
| 2026-04-11 10:45 | -18.41151 | -50.84987 | 8996 ft | 232 kts | 151° |
| 2026-04-11 10:45 | -18.42515 | -50.84043 | 8996 ft | 232 kts | 151° |
| 2026-04-11 10:46 | -18.43852 | -50.83117 | 8996 ft | 232 kts | 151° |
| 2026-04-11 10:46 | -18.45210 | -50.82177 | 8996 ft | 232 kts | 151° |
| 2026-04-11 10:46 | -18.46559 | -50.81243 | 8996 ft | 232 kts | 151° |
| 2026-04-11 10:46 | -18.47900 | -50.80314 | 8996 ft | 232 kts | 151° |
| 2026-04-11 10:47 | -18.49260 | -50.79372 | 8996 ft | 232 kts | 151° |
| 2026-04-11 10:47 | -18.50619 | -50.78430 | 8996 ft | 232 kts | 151° |
| 2026-04-11 10:47 | -18.51951 | -50.77507 | 8996 ft | 232 kts | 151° |
| 2026-04-11 10:47 | -18.53308 | -50.76566 | 8996 ft | 232 kts | 151° |
| 2026-04-11 10:48 | -18.54658 | -50.75630 | 8996 ft | 232 kts | 151° |
| 2026-04-11 10:48 | -18.56010 | -50.74692 | 8996 ft | 232 kts | 151° |
| 2026-04-11 10:48 | -18.57359 | -50.73757 | 8996 ft | 232 kts | 151° |
| 2026-04-11 10:48 | -18.58256 | -50.73135 | 8996 ft | 232 kts | 151° |
| 2026-04-11 10:49 | -18.59603 | -50.72200 | 8996 ft | 232 kts | 151° |
| 2026-04-11 10:49 | -18.61405 | -50.70950 | 8996 ft | 232 kts | 151° |
| 2026-04-11 10:49 | -18.62318 | -50.70316 | 8996 ft | 232 kts | 151° |
| 2026-04-11 10:49 | -18.64101 | -50.69078 | 8996 ft | 232 kts | 151° |
| 2026-04-11 10:50 | -18.65455 | -50.68138 | 8996 ft | 232 kts | 151° |
| 2026-04-11 10:50 | -18.66353 | -50.67514 | 8996 ft | 232 kts | 151° |
| 2026-04-11 10:50 | -18.68149 | -50.66267 | 8996 ft | 232 kts | 151° |
| 2026-04-11 10:50 | -18.69064 | -50.65631 | 8996 ft | 232 kts | 151° |
| 2026-04-11 10:51 | -18.70410 | -50.64695 | 8996 ft | 232 kts | 151° |
| 2026-04-11 10:51 | -18.71759 | -50.63758 | 8996 ft | 232 kts | 151° |
| 2026-04-11 10:51 | -18.73108 | -50.62820 | 8996 ft | 232 kts | 151° |
| 2026-04-11 10:51 | -18.74453 | -50.61885 | 8996 ft | 232 kts | 151° |
| 2026-04-11 10:52 | -18.75804 | -50.60945 | 8996 ft | 232 kts | 151° |
| 2026-04-11 10:52 | -18.77159 | -50.60003 | 8996 ft | 232 kts | 151° |
| 2026-04-11 10:52 | -18.78512 | -50.59061 | 8996 ft | 232 kts | 151° |
| 2026-04-11 10:52 | -18.79856 | -50.58126 | 8996 ft | 232 kts | 151° |
| 2026-04-11 10:53 | -18.81209 | -50.57184 | 8996 ft | 232 kts | 151° |
| 2026-04-11 10:53 | -18.82564 | -50.56242 | 8996 ft | 232 kts | 151° |
| 2026-04-11 10:53 | -18.83900 | -50.55312 | 8996 ft | 232 kts | 151° |
| 2026-04-11 10:53 | -18.85253 | -50.54369 | 8996 ft | 232 kts | 151° |
| 2026-04-11 10:54 | -18.86552 | -50.53465 | 8996 ft | 232 kts | 151° |
| 2026-04-11 10:54 | -18.87566 | -50.52758 | 8996 ft | 232 kts | 151° |
| 2026-04-11 10:54 | -18.88898 | -50.51830 | 8996 ft | 232 kts | 151° |
| 2026-04-11 10:54 | -18.90245 | -50.50891 | 8996 ft | 232 kts | 151° |
| 2026-04-11 10:55 | -18.91602 | -50.49945 | 8996 ft | 232 kts | 151° |
| 2026-04-11 10:55 | -18.92952 | -50.49004 | 8996 ft | 232 kts | 151° |
| 2026-04-11 10:55 | -18.94305 | -50.48061 | 8996 ft | 232 kts | 151° |
| 2026-04-11 10:55 | -18.95651 | -50.47122 | 8996 ft | 232 kts | 151° |
| 2026-04-11 10:56 | -18.97012 | -50.46173 | 8996 ft | 232 kts | 151° |
| 2026-04-11 10:56 | -18.98349 | -50.45240 | 8996 ft | 232 kts | 151° |
| 2026-04-11 10:56 | -18.99698 | -50.44298 | 8996 ft | 232 kts | 151° |
| 2026-04-11 10:56 | -19.01060 | -50.43347 | 8996 ft | 232 kts | 151° |
| 2026-04-11 10:57 | -19.02405 | -50.42408 | 8996 ft | 233 kts | 151° |
| 2026-04-11 10:57 | -19.03760 | -50.41463 | 8996 ft | 233 kts | 151° |
| 2026-04-11 10:57 | -19.05114 | -50.40517 | 8996 ft | 233 kts | 151° |
| 2026-04-11 10:57 | -19.06462 | -50.39575 | 8996 ft | 233 kts | 151° |
| 2026-04-11 10:58 | -19.07805 | -50.38637 | 8996 ft | 233 kts | 151° |
| 2026-04-11 10:58 | -19.09154 | -50.37694 | 8996 ft | 233 kts | 151° |
| 2026-04-11 10:58 | -19.10508 | -50.36748 | 8996 ft | 233 kts | 151° |
| 2026-04-11 10:58 | -19.11850 | -50.35810 | 8996 ft | 233 kts | 151° |
| 2026-04-11 10:59 | -19.13211 | -50.34858 | 8996 ft | 233 kts | 151° |
| 2026-04-11 10:59 | -19.14556 | -50.33917 | 8996 ft | 233 kts | 151° |
| 2026-04-11 10:59 | -19.15895 | -50.32980 | 8996 ft | 233 kts | 151° |
| 2026-04-11 10:59 | -19.17255 | -50.32029 | 8996 ft | 233 kts | 151° |
| 2026-04-11 11:00 | -19.18602 | -50.31086 | 8996 ft | 233 kts | 151° |
| 2026-04-11 11:00 | -19.19951 | -50.30142 | 8996 ft | 233 kts | 151° |
| 2026-04-11 11:00 | -19.21290 | -50.29205 | 8996 ft | 233 kts | 151° |
| 2026-04-11 11:00 | -19.22648 | -50.28254 | 8996 ft | 233 kts | 151° |
| 2026-04-11 11:01 | -19.23993 | -50.27312 | 8996 ft | 233 kts | 151° |
| 2026-04-11 11:01 | -19.25353 | -50.26360 | 8996 ft | 233 kts | 151° |
| 2026-04-11 11:01 | -19.26701 | -50.25415 | 8996 ft | 233 kts | 151° |
| 2026-04-11 11:01 | -19.28037 | -50.24479 | 8996 ft | 233 kts | 151° |
| 2026-04-11 11:02 | -19.29384 | -50.23534 | 8996 ft | 233 kts | 151° |
| 2026-04-11 11:02 | -19.30744 | -50.22581 | 8996 ft | 233 kts | 151° |
| 2026-04-11 11:02 | -19.32099 | -50.21631 | 8996 ft | 233 kts | 151° |
| 2026-04-11 11:02 | -19.33443 | -50.20688 | 8996 ft | 233 kts | 151° |
| 2026-04-11 11:03 | -19.34793 | -50.19741 | 8996 ft | 233 kts | 151° |
| 2026-04-11 11:03 | -19.36140 | -50.18796 | 8996 ft | 233 kts | 151° |
| 2026-04-11 11:03 | -19.37489 | -50.17850 | 8996 ft | 233 kts | 151° |
| 2026-04-11 11:03 | -19.38841 | -50.16901 | 8996 ft | 233 kts | 151° |
| 2026-04-11 11:04 | -19.40205 | -50.15943 | 8996 ft | 233 kts | 151° |
| 2026-04-11 11:04 | -19.41554 | -50.14996 | 8996 ft | 233 kts | 151° |
| 2026-04-11 11:04 | -19.42903 | -50.14048 | 8996 ft | 233 kts | 151° |
| 2026-04-11 11:04 | -19.44245 | -50.13106 | 8996 ft | 233 kts | 151° |
| 2026-04-11 11:05 | -19.45595 | -50.12157 | 8996 ft | 233 kts | 151° |
| 2026-04-11 11:05 | -19.46947 | -50.11207 | 8996 ft | 233 kts | 151° |
| 2026-04-11 11:05 | -19.48284 | -50.10267 | 8996 ft | 233 kts | 151° |
| 2026-04-11 11:05 | -19.49639 | -50.09314 | 8996 ft | 233 kts | 151° |
| 2026-04-11 11:06 | -19.50987 | -50.08367 | 8996 ft | 233 kts | 151° |
| 2026-04-11 11:06 | -19.52329 | -50.07423 | 8996 ft | 233 kts | 151° |
| 2026-04-11 11:06 | -19.53693 | -50.06464 | 8996 ft | 233 kts | 151° |
| 2026-04-11 11:06 | -19.55039 | -50.05516 | 8996 ft | 233 kts | 151° |
| 2026-04-11 11:07 | -19.56379 | -50.04573 | 8996 ft | 233 kts | 151° |
| 2026-04-11 11:07 | -19.57725 | -50.03626 | 8996 ft | 233 kts | 151° |
| 2026-04-11 11:07 | -19.59071 | -50.02678 | 8996 ft | 233 kts | 151° |
| 2026-04-11 11:07 | -19.60436 | -50.01717 | 8996 ft | 233 kts | 151° |
| 2026-04-11 11:08 | -19.61782 | -50.00769 | 8996 ft | 233 kts | 151° |
| 2026-04-11 11:08 | -19.63122 | -49.99825 | 8996 ft | 233 kts | 151° |
| 2026-04-11 11:08 | -19.64483 | -49.98866 | 8996 ft | 233 kts | 151° |
| 2026-04-11 11:08 | -19.65818 | -49.97925 | 8996 ft | 233 kts | 151° |
| 2026-04-11 11:09 | -19.67179 | -49.96966 | 8996 ft | 233 kts | 151° |
| 2026-04-11 11:09 | -19.68523 | -49.96018 | 8996 ft | 233 kts | 151° |
| 2026-04-11 11:09 | -19.69870 | -49.95068 | 8996 ft | 233 kts | 151° |
| 2026-04-11 11:09 | -19.71224 | -49.94113 | 8996 ft | 233 kts | 151° |
| 2026-04-11 11:10 | -19.72567 | -49.93166 | 8996 ft | 233 kts | 151° |
| 2026-04-11 11:10 | -19.73912 | -49.92217 | 8996 ft | 233 kts | 151° |
| 2026-04-11 11:10 | -19.75267 | -49.91260 | 8996 ft | 233 kts | 151° |
| 2026-04-11 11:10 | -19.76628 | -49.90299 | 8996 ft | 233 kts | 151° |
| 2026-04-11 11:11 | -19.77963 | -49.89357 | 8996 ft | 233 kts | 151° |
| 2026-04-11 11:11 | -19.79326 | -49.88394 | 8996 ft | 233 kts | 151° |
| 2026-04-11 11:11 | -19.80673 | -49.87443 | 8996 ft | 233 kts | 151° |
| 2026-04-11 11:11 | -19.82012 | -49.86497 | 8996 ft | 233 kts | 151° |
| 2026-04-11 11:12 | -19.83361 | -49.85543 | 8996 ft | 233 kts | 151° |
| 2026-04-11 11:12 | -19.84706 | -49.84593 | 8996 ft | 233 kts | 150° |
| 2026-04-11 11:12 | -19.86058 | -49.83637 | 8996 ft | 233 kts | 150° |
| 2026-04-11 11:12 | -19.87406 | -49.82684 | 8996 ft | 233 kts | 150° |
| 2026-04-11 11:13 | -19.88753 | -49.81731 | 8996 ft | 233 kts | 150° |
| 2026-04-11 11:13 | -19.90100 | -49.80778 | 8996 ft | 233 kts | 150° |
| 2026-04-11 11:13 | -19.91457 | -49.79819 | 8996 ft | 233 kts | 150° |
| 2026-04-11 11:13 | -19.92803 | -49.78866 | 8996 ft | 233 kts | 150° |
| 2026-04-11 11:14 | -19.94149 | -49.77913 | 8996 ft | 233 kts | 150° |
| 2026-04-11 11:14 | -19.95494 | -49.76960 | 8996 ft | 233 kts | 150° |
| 2026-04-11 11:14 | -19.96856 | -49.75996 | 8996 ft | 233 kts | 150° |
| 2026-04-11 11:14 | -19.98206 | -49.75040 | 8996 ft | 233 kts | 150° |
| 2026-04-11 11:15 | -19.99551 | -49.74087 | 8996 ft | 233 kts | 150° |
| 2026-04-11 11:15 | -20.00908 | -49.73126 | 8996 ft | 233 kts | 150° |
| 2026-04-11 11:15 | -20.02243 | -49.72180 | 8996 ft | 233 kts | 150° |
| 2026-04-11 11:15 | -20.03605 | -49.71214 | 8996 ft | 233 kts | 150° |
| 2026-04-11 11:16 | -20.04953 | -49.70258 | 8996 ft | 233 kts | 150° |
| 2026-04-11 11:16 | -20.06301 | -49.69302 | 8996 ft | 233 kts | 150° |
| 2026-04-11 11:16 | -20.07640 | -49.68352 | 8996 ft | 233 kts | 150° |
| 2026-04-11 11:16 | -20.09000 | -49.67387 | 8996 ft | 233 kts | 150° |
| 2026-04-11 11:17 | -20.10348 | -49.66431 | 8996 ft | 233 kts | 150° |
| 2026-04-11 11:17 | -20.11692 | -49.65477 | 8996 ft | 233 kts | 150° |
| 2026-04-11 11:17 | -20.13033 | -49.64525 | 8996 ft | 233 kts | 150° |
| 2026-04-11 11:17 | -20.14384 | -49.63565 | 8996 ft | 233 kts | 150° |
| 2026-04-11 11:18 | -20.15727 | -49.62612 | 8996 ft | 233 kts | 150° |
| 2026-04-11 11:18 | -20.17081 | -49.61650 | 8996 ft | 233 kts | 150° |
| 2026-04-11 11:18 | -20.18435 | -49.60688 | 8996 ft | 233 kts | 150° |
| 2026-04-11 11:18 | -20.19791 | -49.59724 | 8996 ft | 233 kts | 150° |
| 2026-04-11 11:19 | -20.21140 | -49.58765 | 8996 ft | 233 kts | 150° |
| 2026-04-11 11:19 | -20.22484 | -49.57809 | 8996 ft | 233 kts | 150° |
| 2026-04-11 11:19 | -20.23832 | -49.56851 | 8996 ft | 233 kts | 150° |
| 2026-04-11 11:19 | -20.25181 | -49.55891 | 8996 ft | 233 kts | 150° |
| 2026-04-11 11:20 | -20.26527 | -49.54934 | 8996 ft | 233 kts | 150° |
| 2026-04-11 11:20 | -20.27875 | -49.53975 | 8996 ft | 233 kts | 150° |
| 2026-04-11 11:20 | -20.29237 | -49.53005 | 8996 ft | 233 kts | 150° |
| 2026-04-11 11:20 | -20.30584 | -49.52046 | 8996 ft | 233 kts | 150° |
| 2026-04-11 11:21 | -20.31923 | -49.51093 | 8996 ft | 233 kts | 150° |
| 2026-04-11 11:21 | -20.33266 | -49.50137 | 8996 ft | 233 kts | 150° |
| 2026-04-11 11:21 | -20.34623 | -49.49170 | 8996 ft | 233 kts | 150° |
| 2026-04-11 11:21 | -20.35968 | -49.48212 | 8996 ft | 233 kts | 150° |
| 2026-04-11 11:22 | -20.37306 | -49.47258 | 8996 ft | 233 kts | 150° |
| 2026-04-11 11:22 | -20.38659 | -49.46294 | 8996 ft | 233 kts | 150° |
| 2026-04-11 11:22 | -20.40015 | -49.45327 | 8996 ft | 233 kts | 150° |
| 2026-04-11 11:22 | -20.41363 | -49.44366 | 8996 ft | 233 kts | 150° |
| 2026-04-11 11:23 | -20.42713 | -49.43403 | 8996 ft | 233 kts | 150° |
| 2026-04-11 11:23 | -20.44057 | -49.42444 | 8996 ft | 233 kts | 150° |
| 2026-04-11 11:23 | -20.45402 | -49.41484 | 8996 ft | 233 kts | 150° |
| 2026-04-11 11:23 | -20.46755 | -49.40519 | 8996 ft | 233 kts | 150° |
| 2026-04-11 11:24 | -20.48104 | -49.39555 | 8996 ft | 233 kts | 150° |
| 2026-04-11 11:24 | -20.49449 | -49.38595 | 8996 ft | 233 kts | 150° |
| 2026-04-11 11:24 | -20.50791 | -49.37636 | 8996 ft | 233 kts | 150° |
| 2026-04-11 11:24 | -20.52151 | -49.36664 | 8996 ft | 233 kts | 150° |
| 2026-04-11 11:25 | -20.53498 | -49.35702 | 8996 ft | 233 kts | 150° |
| 2026-04-11 11:25 | -20.54841 | -49.34742 | 8996 ft | 233 kts | 150° |
| 2026-04-11 11:25 | -20.56189 | -49.33778 | 8994 ft | 231 kts | 150° |
| 2026-04-11 11:25 | -20.57059 | -49.33153 | 8861 ft | 225 kts | 150° |
| 2026-04-11 11:26 | -20.58348 | -49.32230 | 8463 ft | 221 kts | 150° |
| 2026-04-11 11:26 | -20.59628 | -49.31312 | 8077 ft | 217 kts | 151° |
| 2026-04-11 11:26 | -20.60868 | -49.30426 | 7702 ft | 214 kts | 151° |
| 2026-04-11 11:26 | -20.62131 | -49.29596 | 7323 ft | 210 kts | 156° |
| 2026-04-11 11:27 | -20.63430 | -49.28920 | 6948 ft | 206 kts | 161° |
| 2026-04-11 11:27 | -20.64738 | -49.28352 | 6577 ft | 204 kts | 165° |
| 2026-04-11 11:27 | -20.66076 | -49.27841 | 6196 ft | 203 kts | 164° |
| 2026-04-11 11:27 | -20.67408 | -49.27369 | 5826 ft | 203 kts | 162° |
| 2026-04-11 11:28 | -20.68759 | -49.26895 | 5451 ft | 201 kts | 161° |
| 2026-04-11 11:28 | -20.70095 | -49.26574 | 5093 ft | 192 kts | 180° |
| 2026-04-11 11:28 | -20.71326 | -49.26954 | 4718 ft | 183 kts | 212° |
| 2026-04-11 11:28 | -20.72250 | -49.27835 | 4365 ft | 176 kts | 229° |
| 2026-04-11 11:29 | -20.73692 | -49.29879 | 3614 ft | 169 kts | 234° |
| 2026-04-11 11:29 | -20.74363 | -49.30854 | 3446 ft | 152 kts | 233° |
| 2026-04-11 11:29 | -20.74955 | -49.31679 | 3362 ft | 130 kts | 232° |
| 2026-04-11 11:30 | -20.75496 | -49.32408 | 3357 ft | 124 kts | 231° |
| 2026-04-11 11:30 | -20.76057 | -49.33141 | 3263 ft | 131 kts | 230° |
| 2026-04-11 11:30 | -20.76662 | -49.33902 | 3159 ft | 137 kts | 229° |
| 2026-04-11 11:30 | -20.77299 | -49.34691 | 3045 ft | 141 kts | 229° |
| 2026-04-11 11:31 | -20.77935 | -49.35492 | 2943 ft | 139 kts | 230° |
| 2026-04-11 11:31 | -20.78529 | -49.36276 | 2817 ft | 135 kts | 231° |
| 2026-04-11 11:31 | -20.79114 | -49.37067 | 2629 ft | 135 kts | 232° |
| 2026-04-11 11:31 | -20.79666 | -49.37818 | 2495 ft | 123 kts | 231° |
| 2026-04-11 11:32 | -20.80203 | -49.38540 | 2284 ft | 125 kts | 232° |
| 2026-04-11 11:32 | -20.80739 | -49.39272 | 2056 ft | 124 kts | 232° |
| 2026-04-11 11:32 | -20.81249 | -49.39974 | 1802 ft | 114 kts | 232° |
| 2026-04-11 11:32 | -20.81664 | -49.40541 | 1789 ft | 76 kts | 232° |
| 2026-04-11 11:33 | -20.81820 | -49.40760 | 1789 ft | 15 kts | 250° |
| 2026-04-11 11:33 | -20.81819 | -49.40754 | 1789 ft | 20 kts | 51° |
| 2026-04-11 11:33 | -20.81691 | -49.40582 | 1789 ft | 28 kts | 52° |
| 2026-04-11 11:33 | -20.81577 | -49.40427 | 1789 ft | 23 kts | 47° |
| 2026-04-11 11:34 | -20.81475 | -49.40420 | 1789 ft | 11 kts | 45° |
| 2026-04-11 11:34 | -20.81401 | -49.40350 | 1789 ft | 11 kts | 325° |
| 2026-04-11 11:34 | -20.81354 | -49.40390 | 1789 ft | 0 kts | 325° |